sensor_id;sensor_type;location;lat;lon;timestamp;pressure;altitude;pressure_sealevel;temperature;humidity
44144;BME280;43510;51.920;4.492;2023-01-08T00:00:52;67130.00;;;11.46;100.00
44144;BME280;43510;51.920;4.492;2023-01-08T00:03:17;67128.88;;;11.45;100.00
44144;BME280;43510;51.920;4.492;2023-01-08T00:05:43;67122.34;;;11.42;100.00
44144;BME280;43510;51.920;4.492;2023-01-08T00:08:09;67126.09;;;11.43;100.00
44144;BME280;43510;51.920;4.492;2023-01-08T00:10:36;67125.13;;;11.44;100.00
44144;BME280;43510;51.920;4.492;2023-01-08T00:13:02;67125.69;;;11.45;100.00
44144;BME280;43510;51.920;4.492;2023-01-08T00:15:27;67128.72;;;11.43;100.00
44144;BME280;43510;51.920;4.492;2023-01-08T00:17:54;67125.13;;;11.44;100.00
44144;BME280;43510;51.920;4.492;2023-01-08T00:20:19;67124.19;;;11.46;100.00
44144;BME280;43510;51.920;4.492;2023-01-08T00:22:47;67127.38;;;11.46;100.00
44144;BME280;43510;51.920;4.492;2023-01-08T00:25:12;67130.56;;;11.47;100.00
44144;BME280;43510;51.920;4.492;2023-01-08T00:27:37;67131.66;;;11.48;100.00
44144;BME280;43510;51.920;4.492;2023-01-08T00:32:31;67129.03;;;11.48;100.00
44144;BME280;43510;51.920;4.492;2023-01-08T00:34:56;67131.81;;;11.51;100.00
44144;BME280;43510;51.920;4.492;2023-01-08T00:37:22;67134.63;;;11.53;100.00
44144;BME280;43510;51.920;4.492;2023-01-08T00:39:47;67141.72;;;11.57;100.00
44144;BME280;43510;51.920;4.492;2023-01-08T00:42:12;67145.63;;;11.61;100.00
44144;BME280;43510;51.920;4.492;2023-01-08T00:44:37;67143.16;;;11.63;100.00
44144;BME280;43510;51.920;4.492;2023-01-08T00:47:03;67149.69;;;11.67;100.00
44144;BME280;43510;51.920;4.492;2023-01-08T00:49:28;67152.47;;;11.69;100.00
44144;BME280;43510;51.920;4.492;2023-01-08T00:51:54;67155.84;;;11.72;100.00
44144;BME280;43510;51.920;4.492;2023-01-08T00:54:19;67158.47;;;11.72;100.00
44144;BME280;43510;51.920;4.492;2023-01-08T00:56:44;67156.41;;;11.73;100.00
44144;BME280;43510;51.920;4.492;2023-01-08T00:59:09;67154.38;;;11.73;100.00
44144;BME280;43510;51.920;4.492;2023-01-08T01:01:35;67161.28;;;11.75;100.00
44144;BME280;43510;51.920;4.492;2023-01-08T01:04:00;67158.66;;;11.75;100.00
44144;BME280;43510;51.920;4.492;2023-01-08T01:06:25;67153.22;;;11.72;100.00
44144;BME280;43510;51.920;4.492;2023-01-08T01:08:54;67158.28;;;11.70;100.00
44144;BME280;43510;51.920;4.492;2023-01-08T01:11:22;67148.59;;;11.66;100.00
44144;BME280;43510;51.920;4.492;2023-01-08T01:13:47;67147.69;;;11.60;100.00
44144;BME280;43510;51.920;4.492;2023-01-08T01:16:13;67141.16;;;11.57;100.00
44144;BME280;43510;51.920;4.492;2023-01-08T01:18:38;67127.69;;;11.52;100.00
44144;BME280;43510;51.920;4.492;2023-01-08T01:21:19;67130.16;;;11.49;100.00
44144;BME280;43510;51.920;4.492;2023-01-08T01:23:45;67124.97;;;11.42;100.00
44144;BME280;43510;51.920;4.492;2023-01-08T01:26:17;67119.41;;;11.37;100.00
44144;BME280;43510;51.920;4.492;2023-01-08T01:28:45;67117.34;;;11.37;100.00
44144;BME280;43510;51.920;4.492;2023-01-08T01:31:11;67110.63;;;11.31;100.00
44144;BME280;43510;51.920;4.492;2023-01-08T01:33:38;67111.56;;;11.30;100.00
44144;BME280;43510;51.920;4.492;2023-01-08T01:36:03;67109.50;;;11.30;100.00
44144;BME280;43510;51.920;4.492;2023-01-08T01:38:29;67109.91;;;11.28;100.00
44144;BME280;43510;51.920;4.492;2023-01-08T01:40:54;67111.97;;;11.28;100.00
44144;BME280;43510;51.920;4.492;2023-01-08T01:43:35;67105.59;;;11.27;100.00
44144;BME280;43510;51.920;4.492;2023-01-08T01:46:02;67105.59;;;11.27;100.00
44144;BME280;43510;51.920;4.492;2023-01-08T01:48:27;67106.00;;;11.25;100.00
44144;BME280;43510;51.920;4.492;2023-01-08T01:50:53;67101.13;;;11.23;100.00
44144;BME280;43510;51.920;4.492;2023-01-08T01:53:20;67103.19;;;11.22;100.00
44144;BME280;43510;51.920;4.492;2023-01-08T01:55:48;67101.69;;;11.23;100.00
44144;BME280;43510;51.920;4.492;2023-01-08T01:58:23;67100.00;;;11.22;100.00
44144;BME280;43510;51.920;4.492;2023-01-08T02:00:50;67097.78;;;11.20;100.00
44144;BME280;43510;51.920;4.492;2023-01-08T02:03:15;67098.91;;;11.21;100.00
44144;BME280;43510;51.920;4.492;2023-01-08T02:05:45;67100.56;;;11.22;100.00
44144;BME280;43510;51.920;4.492;2023-01-08T02:08:16;67104.31;;;11.23;100.00
44144;BME280;43510;51.920;4.492;2023-01-08T02:10:56;67098.34;;;11.20;100.00
44144;BME280;43510;51.920;4.492;2023-01-08T02:13:26;67095.00;;;11.17;100.00
44144;BME280;43510;51.920;4.492;2023-01-08T02:16:16;67095.38;;;11.15;100.00
44144;BME280;43510;51.920;4.492;2023-01-08T02:18:46;67091.66;;;11.14;100.00
44144;BME280;43510;51.920;4.492;2023-01-08T02:24:08;67091.47;;;11.12;100.00
44144;BME280;43510;51.920;4.492;2023-01-08T02:26:36;67092.59;;;11.13;100.00
44144;BME280;43510;51.920;4.492;2023-01-08T02:29:04;67087.34;;;11.13;100.00
44144;BME280;43510;51.920;4.492;2023-01-08T02:31:31;67090.53;;;11.13;100.00
44144;BME280;43510;51.920;4.492;2023-01-08T02:33:57;67091.66;;;11.14;100.00
44144;BME280;43510;51.920;4.492;2023-01-08T02:44:33;67094.09;;;11.12;100.00
44144;BME280;43510;51.920;4.492;2023-01-08T02:46:59;67095.94;;;11.16;100.00
44144;BME280;43510;51.920;4.492;2023-01-08T02:49:28;67095.00;;;11.17;100.00
44144;BME280;43510;51.920;4.492;2023-01-08T02:51:56;67099.44;;;11.21;100.00
44144;BME280;43510;51.920;4.492;2023-01-08T02:54:23;67099.44;;;11.21;100.00
44144;BME280;43510;51.920;4.492;2023-01-08T02:56:54;67104.88;;;11.24;100.00
44144;BME280;43510;51.920;4.492;2023-01-08T02:59:21;67104.50;;;11.26;100.00
44144;BME280;43510;51.920;4.492;2023-01-08T03:01:48;67107.13;;;11.26;100.00
44144;BME280;43510;51.920;4.492;2023-01-08T03:04:17;67103.38;;;11.25;100.00
44144;BME280;43510;51.920;4.492;2023-01-08T03:06:43;67107.66;;;11.26;100.00
44144;BME280;43510;51.920;4.492;2023-01-08T03:09:09;67111.00;;;11.29;100.00
44144;BME280;43510;51.920;4.492;2023-01-08T03:11:40;67115.88;;;11.31;100.00
44144;BME280;43510;51.920;4.492;2023-01-08T03:16:46;67115.09;;;11.35;100.00
44144;BME280;43510;51.920;4.492;2023-01-08T03:21:41;67117.88;;;11.38;100.00
44144;BME280;43510;51.920;4.492;2023-01-08T03:24:10;67124.22;;;11.39;100.00
44144;BME280;43510;51.920;4.492;2023-01-08T03:26:36;67123.69;;;11.38;100.00
44144;BME280;43510;51.920;4.492;2023-01-08T03:29:03;67120.28;;;11.42;100.00
44144;BME280;43510;51.920;4.492;2023-01-08T03:31:30;67126.25;;;11.45;100.00
44144;BME280;43510;51.920;4.492;2023-01-08T03:33:58;67125.13;;;11.44;100.00
44144;BME280;43510;51.920;4.492;2023-01-08T03:36:25;67116.78;;;11.37;100.00
44144;BME280;43510;51.920;4.492;2023-01-08T03:39:08;67101.47;;;11.28;100.00
44144;BME280;43510;51.920;4.492;2023-01-08T03:41:38;67093.31;;;11.16;100.00
44144;BME280;43510;51.920;4.492;2023-01-08T03:44:03;67087.59;;;11.08;100.00
44144;BME280;43510;51.920;4.492;2023-01-08T03:46:31;67078.25;;;11.02;100.00
44144;BME280;43510;51.920;4.492;2023-01-08T03:48:57;67071.56;;;10.96;100.00
44144;BME280;43510;51.920;4.492;2023-01-08T03:51:23;67070.13;;;10.90;100.00
44144;BME280;43510;51.920;4.492;2023-01-08T03:53:49;67060.97;;;10.86;100.00
44144;BME280;43510;51.920;4.492;2023-01-08T03:56:16;67060.81;;;10.84;100.00
44144;BME280;43510;51.920;4.492;2023-01-08T03:58:41;67053.13;;;10.79;100.00
44144;BME280;43510;51.920;4.492;2023-01-08T04:01:07;67052.03;;;10.78;100.00
44144;BME280;43510;51.920;4.492;2023-01-08T04:03:32;67050.38;;;10.77;100.00
44144;BME280;43510;51.920;4.492;2023-01-08T04:06:01;67049.63;;;10.74;100.00
44144;BME280;43510;51.920;4.492;2023-01-08T04:08:26;67048.69;;;10.75;100.00
44144;BME280;43510;51.920;4.492;2023-01-08T04:10:53;67051.47;;;10.78;100.00
44144;BME280;43510;51.920;4.492;2023-01-08T04:13:18;67051.88;;;10.76;100.00
44144;BME280;43510;51.920;4.492;2023-01-08T04:15:50;67050.94;;;10.77;100.00
44144;BME280;43510;51.920;4.492;2023-01-08T04:18:16;67047.56;;;10.74;100.00
44144;BME280;43510;51.920;4.492;2023-01-08T04:20:47;67044.22;;;10.71;100.00
44144;BME280;43510;51.920;4.492;2023-01-08T04:23:13;67044.44;;;10.67;100.00
44144;BME280;43510;51.920;4.492;2023-01-08T04:25:38;67039.03;;;10.64;100.00
44144;BME280;43510;51.920;4.492;2023-01-08T04:28:04;67037.34;;;10.62;100.00
44144;BME280;43510;51.920;4.492;2023-01-08T04:30:29;67034.59;;;10.60;100.00
44144;BME280;43510;51.920;4.492;2023-01-08T04:32:55;67030.84;;;10.59;100.00
44144;BME280;43510;51.920;4.492;2023-01-08T04:35:20;67028.59;;;10.57;100.00
44144;BME280;43510;51.920;4.492;2023-01-08T04:37:45;67026.38;;;10.55;100.00
44144;BME280;43510;51.920;4.492;2023-01-08T04:40:11;67027.31;;;10.53;100.00
44144;BME280;43510;51.920;4.492;2023-01-08T04:42:36;67025.66;;;10.52;100.00
44144;BME280;43510;51.920;4.492;2023-01-08T04:45:01;67021.34;;;10.50;100.00
44144;BME280;43510;51.920;4.492;2023-01-08T04:47:36;67021.34;;;10.50;100.00
44144;BME280;43510;51.920;4.492;2023-01-08T04:50:02;67021.19;;;10.48;100.00
44144;BME280;43510;51.920;4.492;2023-01-08T04:52:27;67018.41;;;10.45;100.00
44144;BME280;43510;51.920;4.492;2023-01-08T04:54:55;67015.78;;;10.45;100.00
44144;BME280;43510;51.920;4.492;2023-01-08T04:57:20;67015.78;;;10.45;100.00
44144;BME280;43510;51.920;4.492;2023-01-08T04:59:45;67012.97;;;10.43;100.00
44144;BME280;43510;51.920;4.492;2023-01-08T05:04:40;67010.75;;;10.41;100.00
44144;BME280;43510;51.920;4.492;2023-01-08T05:07:05;67011.16;;;10.39;100.00
44144;BME280;43510;51.920;4.492;2023-01-08T05:09:31;67015.44;;;10.40;100.00
44144;BME280;43510;51.920;4.492;2023-01-08T05:11:57;67008.53;;;10.39;100.00
44144;BME280;43510;51.920;4.492;2023-01-08T05:14:22;67005.75;;;10.36;100.00
44144;BME280;43510;51.920;4.492;2023-01-08T05:16:47;67004.06;;;10.35;100.00
44144;BME280;43510;51.920;4.492;2023-01-08T05:19:12;67000.72;;;10.32;100.00
44144;BME280;43510;51.920;4.492;2023-01-08T05:21:38;67001.69;;;10.30;100.00
44144;BME280;43510;51.920;4.492;2023-01-08T05:24:04;66998.50;;;10.30;100.00
44144;BME280;43510;51.920;4.492;2023-01-08T05:26:29;66999.44;;;10.28;100.00
44144;BME280;43510;51.920;4.492;2023-01-08T05:28:54;67001.50;;;10.28;100.00
44144;BME280;43510;51.920;4.492;2023-01-08T05:31:19;66995.13;;;10.27;100.00
44144;BME280;43510;51.920;4.492;2023-01-08T05:33:45;66992.94;;;10.25;100.00
44144;BME280;43510;51.920;4.492;2023-01-08T05:36:11;66989.00;;;10.21;100.00
44144;BME280;43510;51.920;4.492;2023-01-08T05:38:36;66986.22;;;10.18;100.00
44144;BME280;43510;51.920;4.492;2023-01-08T05:41:02;66987.16;;;10.17;100.00
44144;BME280;43510;51.920;4.492;2023-01-08T05:43:27;66986.63;;;10.16;100.00
44144;BME280;43510;51.920;4.492;2023-01-08T05:45:52;66986.03;;;10.16;100.00
44144;BME280;43510;51.920;4.492;2023-01-08T05:48:17;66980.63;;;10.13;100.00
44144;BME280;43510;51.920;4.492;2023-01-08T05:50:43;66982.13;;;10.12;100.00
44144;BME280;43510;51.920;4.492;2023-01-08T05:53:08;66976.16;;;10.09;100.00
44144;BME280;43510;51.920;4.492;2023-01-08T05:55:34;66975.59;;;10.09;100.00
44144;BME280;43510;51.920;4.492;2023-01-08T05:58:03;66973.00;;;10.09;100.00
44144;BME280;43510;51.920;4.492;2023-01-08T06:00:28;66972.81;;;10.06;100.00
44144;BME280;43510;51.920;4.492;2023-01-08T06:02:53;66976.53;;;10.07;100.00
44144;BME280;43510;51.920;4.492;2023-01-08T06:05:19;66975.44;;;10.06;100.00
44144;BME280;43510;51.920;4.492;2023-01-08T06:07:44;66968.53;;;10.05;100.00
44144;BME280;43510;51.920;4.492;2023-01-08T06:10:09;66975.44;;;10.06;100.00
44144;BME280;43510;51.920;4.492;2023-01-08T06:12:34;66972.81;;;10.06;100.00
44144;BME280;43510;51.920;4.492;2023-01-08T06:15:00;66973.94;;;10.07;100.00
44144;BME280;43510;51.920;4.492;2023-01-08T06:17:26;66973.38;;;10.07;100.00
44144;BME280;43510;51.920;4.492;2023-01-08T06:19:51;66970.59;;;10.04;100.00
44144;BME280;43510;51.920;4.492;2023-01-08T06:22:17;66968.34;;;10.02;100.00
44144;BME280;43510;51.920;4.492;2023-01-08T06:24:42;66973.03;;;10.02;100.00
44144;BME280;43510;51.920;4.492;2023-01-08T06:27:17;66966.69;;;10.01;100.00
44144;BME280;43510;51.920;4.492;2023-01-08T06:29:42;66965.97;;;9.98;100.00
44144;BME280;43510;51.920;4.492;2023-01-08T06:32:08;66966.91;;;9.96;100.00
44144;BME280;43510;51.920;4.492;2023-01-08T06:34:33;66956.28;;;9.94;100.00
44144;BME280;43510;51.920;4.492;2023-01-08T06:36:58;66958.31;;;9.93;100.00
44144;BME280;43510;51.920;4.492;2023-01-08T06:39:23;66959.44;;;9.94;100.00
44144;BME280;43510;51.920;4.492;2023-01-08T06:41:49;66962.06;;;9.94;100.00
44144;BME280;43510;51.920;4.492;2023-01-08T06:44:14;66956.09;;;9.91;100.00
44144;BME280;43510;51.920;4.492;2023-01-08T06:46:39;66952.19;;;9.88;100.00
44144;BME280;43510;51.920;4.492;2023-01-08T06:49:08;66950.13;;;9.88;100.00
44144;BME280;43510;51.920;4.492;2023-01-08T06:51:33;66951.09;;;9.87;100.00
44144;BME280;43510;51.920;4.492;2023-01-08T06:53:59;66951.63;;;9.87;100.00
44144;BME280;43510;51.920;4.492;2023-01-08T06:56:24;66957.44;;;9.88;100.00
44144;BME280;43510;51.920;4.492;2023-01-08T06:58:49;66951.47;;;9.84;100.00
44144;BME280;43510;51.920;4.492;2023-01-08T07:01:15;66945.66;;;9.84;100.00
44144;BME280;43510;51.920;4.492;2023-01-08T07:03:40;66947.19;;;9.83;100.00
44144;BME280;43510;51.920;4.492;2023-01-08T07:06:06;66948.28;;;9.84;100.00
44144;BME280;43510;51.920;4.492;2023-01-08T07:08:31;66947.56;;;9.81;100.00
44144;BME280;43510;51.920;4.492;2023-01-08T07:11:00;66942.16;;;9.78;100.00
44144;BME280;43510;51.920;4.492;2023-01-08T07:13:30;66940.50;;;9.77;100.00
44144;BME280;43510;51.920;4.492;2023-01-08T07:15:56;66936.75;;;9.76;100.00
44144;BME280;43510;51.920;4.492;2023-01-08T07:18:21;66938.25;;;9.75;100.00
44144;BME280;43510;51.920;4.492;2023-01-08T07:20:49;66942.38;;;9.74;100.00
44144;BME280;43510;51.920;4.492;2023-01-08T07:23:14;66937.53;;;9.72;100.00
44144;BME280;43510;51.920;4.492;2023-01-08T07:25:39;66935.47;;;9.72;100.00
44144;BME280;43510;51.920;4.492;2023-01-08T07:28:05;66935.88;;;9.70;100.00
44144;BME280;43510;51.920;4.492;2023-01-08T07:30:30;66936.44;;;9.71;100.00
44144;BME280;43510;51.920;4.492;2023-01-08T07:32:59;66933.25;;;9.70;100.00
44144;BME280;43510;51.920;4.492;2023-01-08T07:35:24;66926.72;;;9.67;100.00
44144;BME280;43510;51.920;4.492;2023-01-08T07:37:50;66928.22;;;9.66;100.00
44144;BME280;43510;51.920;4.492;2023-01-08T07:40:15;66931.22;;;9.64;100.00
44144;BME280;43510;51.920;4.492;2023-01-08T07:42:40;66930.84;;;9.66;100.00
44144;BME280;43510;51.920;4.492;2023-01-08T07:45:06;66928.63;;;9.64;100.00
44144;BME280;43510;51.920;4.492;2023-01-08T07:47:32;66924.31;;;9.62;100.00
44144;BME280;43510;51.920;4.492;2023-01-08T07:49:57;66922.81;;;9.63;100.00
44144;BME280;43510;51.920;4.492;2023-01-08T07:52:23;66921.16;;;9.62;100.00
44144;BME280;43510;51.920;4.492;2023-01-08T07:54:49;66923.22;;;9.61;100.00
44144;BME280;43510;51.920;4.492;2023-01-08T07:57:14;66924.88;;;9.63;100.00
44144;BME280;43510;51.920;4.492;2023-01-08T07:59:39;66923.22;;;9.61;100.00
44144;BME280;43510;51.920;4.492;2023-01-08T08:02:04;66929.00;;;9.62;100.00
44144;BME280;43510;51.920;4.492;2023-01-08T08:04:30;66919.13;;;9.55;100.00
44144;BME280;43510;51.920;4.492;2023-01-08T08:06:55;66922.66;;;9.61;100.00
44144;BME280;43510;51.920;4.492;2023-01-08T08:09:20;66925.81;;;9.61;100.00
44144;BME280;43510;51.920;4.492;2023-01-08T08:11:45;66923.22;;;9.61;100.00
44144;BME280;43510;51.920;4.492;2023-01-08T08:14:11;66922.66;;;9.61;100.00
44144;BME280;43510;51.920;4.492;2023-01-08T08:16:36;66922.66;;;9.61;100.00
44144;BME280;43510;51.920;4.492;2023-01-08T08:19:01;66926.75;;;9.60;100.00
44144;BME280;43510;51.920;4.492;2023-01-08T08:21:27;66923.03;;;9.59;100.00
44144;BME280;43510;51.920;4.492;2023-01-08T08:23:54;66917.06;;;9.56;100.00
44144;BME280;43510;51.920;4.492;2023-01-08T08:26:19;66918.75;;;9.57;100.00
44144;BME280;43510;51.920;4.492;2023-01-08T08:28:44;66910.34;;;9.57;100.00
44144;BME280;43510;51.920;4.492;2023-01-08T08:31:10;66917.06;;;9.56;100.00
44144;BME280;43510;51.920;4.492;2023-01-08T08:33:37;66921.19;;;9.55;100.00
44144;BME280;43510;51.920;4.492;2023-01-08T08:36:02;66918.19;;;9.57;100.00
44144;BME280;43510;51.920;4.492;2023-01-08T08:38:28;66921.38;;;9.57;100.00
44144;BME280;43510;51.920;4.492;2023-01-08T08:40:53;66918.19;;;9.57;100.00
44144;BME280;43510;51.920;4.492;2023-01-08T08:43:18;66921.94;;;9.58;100.00
44144;BME280;43510;51.920;4.492;2023-01-08T08:45:43;66924.31;;;9.62;100.00
44144;BME280;43510;51.920;4.492;2023-01-08T08:48:09;66931.00;;;9.68;100.00
44144;BME280;43510;51.920;4.492;2023-01-08T08:50:35;66951.09;;;9.87;100.00
44144;BME280;43510;51.920;4.492;2023-01-08T08:53:01;66974.72;;;10.03;100.00
44144;BME280;43510;51.920;4.492;2023-01-08T08:55:27;66986.63;;;10.16;100.00
44144;BME280;43510;51.920;4.492;2023-01-08T08:57:52;67001.13;;;10.30;100.00
44144;BME280;43510;51.920;4.492;2023-01-08T09:00:18;67006.84;;;10.37;100.00
44144;BME280;43510;51.920;4.492;2023-01-08T09:02:49;67017.84;;;10.45;100.00
44144;BME280;43510;51.920;4.492;2023-01-08T09:05:15;67023.03;;;10.52;100.00
44144;BME280;43510;51.920;4.492;2023-01-08T09:07:40;67033.47;;;10.59;100.00
44144;BME280;43510;51.920;4.492;2023-01-08T09:10:06;67040.16;;;10.65;100.00
44144;BME280;43510;51.920;4.492;2023-01-08T09:12:32;67049.81;;;10.76;100.00
44144;BME280;43510;51.920;4.492;2023-01-08T09:14:57;67070.13;;;10.90;100.00
44144;BME280;43510;51.920;4.492;2023-01-08T09:17:22;67074.91;;;10.99;100.00
44144;BME280;43510;51.920;4.492;2023-01-08T09:19:49;67079.22;;;11.00;100.00
44144;BME280;43510;51.920;4.492;2023-01-08T09:22:14;67080.47;;;11.04;99.56
44144;BME280;43510;51.920;4.492;2023-01-08T09:24:39;67090.22;;;11.08;99.45
44144;BME280;43510;51.920;4.492;2023-01-08T09:27:04;67091.66;;;11.14;99.24
44144;BME280;43510;51.920;4.492;2023-01-08T09:29:30;67098.50;;;11.23;98.84
44144;BME280;43510;51.920;4.492;2023-01-08T09:31:55;67103.75;;;11.23;98.62
44144;BME280;43510;51.920;4.492;2023-01-08T09:34:23;67107.84;;;11.29;98.79
44144;BME280;43510;51.920;4.492;2023-01-08T09:36:49;67114.53;;;11.35;98.45
44144;BME280;43510;51.920;4.492;2023-01-08T09:39:14;67125.19;;;11.37;97.90
44144;BME280;43510;51.920;4.492;2023-01-08T09:44:09;67126.81;;;11.46;97.60
44144;BME280;43510;51.920;4.492;2023-01-08T09:46:38;67139.50;;;11.55;97.62
44144;BME280;43510;51.920;4.492;2023-01-08T09:49:04;67155.09;;;11.69;97.45
44144;BME280;43510;51.920;4.492;2023-01-08T09:51:35;67166.47;;;11.82;97.06
44144;BME280;43510;51.920;4.492;2023-01-08T09:54:03;67183.78;;;11.98;96.21
44144;BME280;43510;51.920;4.492;2023-01-08T09:56:31;67200.53;;;12.13;95.46
44144;BME280;43510;51.920;4.492;2023-01-08T09:59:04;67186.00;;;12.00;95.56
44144;BME280;43510;51.920;4.492;2023-01-08T10:01:30;67195.34;;;12.06;95.69
44144;BME280;43510;51.920;4.492;2023-01-08T10:04:02;67194.41;;;12.07;95.39
44144;BME280;43510;51.920;4.492;2023-01-08T10:06:28;67203.50;;;12.18;95.09
44144;BME280;43510;51.920;4.492;2023-01-08T10:08:55;67210.03;;;12.21;94.74
44144;BME280;43510;51.920;4.492;2023-01-08T10:11:20;67219.53;;;12.30;94.40
44144;BME280;43510;51.920;4.492;2023-01-08T10:13:48;67240.75;;;12.49;94.02
44144;BME280;43510;51.920;4.492;2023-01-08T10:16:28;67240.75;;;12.49;93.28
44144;BME280;43510;51.920;4.492;2023-01-08T10:18:56;67236.28;;;12.45;93.23
44144;BME280;43510;51.920;4.492;2023-01-08T10:21:23;67227.34;;;12.37;94.05
44144;BME280;43510;51.920;4.492;2023-01-08T10:23:53;67238.50;;;12.47;93.84
44144;BME280;43510;51.920;4.492;2023-01-08T10:29:17;67258.06;;;12.65;93.86
44144;BME280;43510;51.920;4.492;2023-01-08T10:32:06;67257.91;;;12.62;93.27
44144;BME280;43510;51.920;4.492;2023-01-08T10:39:45;67243.31;;;12.56;92.68
44144;BME280;43510;51.920;4.492;2023-01-08T10:42:11;67262.75;;;12.64;92.12
44144;BME280;43510;51.920;4.492;2023-01-08T10:44:43;67263.81;;;12.73;92.24
44144;BME280;43510;51.920;4.492;2023-01-08T10:47:15;67267.91;;;12.79;91.48
44144;BME280;43510;51.920;4.492;2023-01-08T10:49:42;67279.13;;;12.82;91.27
44144;BME280;43510;51.920;4.492;2023-01-08T10:52:31;67281.56;;;12.86;90.70
44144;BME280;43510;51.920;4.492;2023-01-08T10:55:09;67287.69;;;12.92;90.73
44144;BME280;43510;51.920;4.492;2023-01-08T10:57:35;67297.19;;;13.00;89.64
44144;BME280;43510;51.920;4.492;2023-01-08T11:00:00;67301.13;;;13.04;88.63
44144;BME280;43510;51.920;4.492;2023-01-08T11:02:32;67302.78;;;13.05;88.78
44144;BME280;43510;51.920;4.492;2023-01-08T11:04:58;67314.56;;;13.16;88.47
44144;BME280;43510;51.920;4.492;2023-01-08T11:07:24;67308.91;;;13.11;88.36
44144;BME280;43510;51.920;4.492;2023-01-08T11:09:50;67313.81;;;13.13;88.76
44144;BME280;43510;51.920;4.492;2023-01-08T11:14:56;67298.88;;;13.02;88.26
44144;BME280;43510;51.920;4.492;2023-01-08T11:17:23;67296.63;;;13.00;88.52
44144;BME280;43510;51.920;4.492;2023-01-08T11:19:49;67291.59;;;12.95;88.76
44144;BME280;43510;51.920;4.492;2023-01-08T11:22:19;67294.97;;;12.98;89.00
44144;BME280;43510;51.920;4.492;2023-01-08T11:24:45;67299.25;;;13.00;89.08
44144;BME280;43510;51.920;4.492;2023-01-08T11:29:44;67316.38;;;13.20;88.38
44144;BME280;43510;51.920;4.492;2023-01-08T11:37:18;67311.00;;;13.11;88.37
44144;BME280;43510;51.920;4.492;2023-01-08T11:39:44;67292.72;;;12.96;88.35
44144;BME280;43510;51.920;4.492;2023-01-08T11:47:34;67284.00;;;12.84;89.59
44144;BME280;43510;51.920;4.492;2023-01-08T11:50:23;67295.19;;;12.94;89.46
44144;BME280;43510;51.920;4.492;2023-01-08T11:53:01;67294.63;;;12.93;89.28
44144;BME280;43510;51.920;4.492;2023-01-08T11:55:48;67282.88;;;12.83;88.63
44144;BME280;43510;51.920;4.492;2023-01-08T11:58:27;67277.84;;;12.78;89.46
44144;BME280;43510;51.920;4.492;2023-01-08T12:03:41;67292.97;;;12.92;88.98
44144;BME280;43510;51.920;4.492;2023-01-08T12:08:37;67282.25;;;12.89;88.76
44144;BME280;43510;51.920;4.492;2023-01-08T12:11:08;67287.69;;;12.92;88.91
44144;BME280;43510;51.920;4.492;2023-01-08T12:13:46;67287.13;;;12.91;89.25
44144;BME280;43510;51.920;4.492;2023-01-08T12:19:05;67273.72;;;12.79;88.92
44144;BME280;43510;51.920;4.492;2023-01-08T12:21:55;67271.31;;;12.75;89.48
44144;BME280;43510;51.920;4.492;2023-01-08T12:35:14;67278.75;;;12.84;88.70
44144;BME280;43510;51.920;4.492;2023-01-08T12:40:29;67292.16;;;12.96;87.99
44144;BME280;43510;51.920;4.492;2023-01-08T12:42:56;67296.31;;;12.95;87.78
44144;BME280;43510;51.920;4.492;2023-01-08T12:45:26;67293.09;;;12.94;88.24
44144;BME280;43510;51.920;4.492;2023-01-08T12:47:54;67291.44;;;12.93;87.63
44144;BME280;43510;51.920;4.492;2023-01-08T12:57:59;67295.50;;;12.99;86.14
44144;BME280;43510;51.920;4.492;2023-01-08T13:02:55;67290.09;;;12.96;86.61
44144;BME280;43510;51.920;4.492;2023-01-08T13:07:48;67291.03;;;12.95;86.83
44144;BME280;43510;51.920;4.492;2023-01-08T13:10:21;67295.19;;;12.94;86.79
44144;BME280;43510;51.920;4.492;2023-01-08T13:12:52;67283.06;;;12.85;86.57
44144;BME280;43510;51.920;4.492;2023-01-08T13:15:28;67282.50;;;12.85;86.58
44144;BME280;43510;51.920;4.492;2023-01-08T13:17:55;67270.91;;;12.77;86.84
44144;BME280;43510;51.920;4.492;2023-01-08T13:20:28;67266.47;;;12.73;87.27
44144;BME280;43510;51.920;4.492;2023-01-08T13:22:55;67260.13;;;12.64;87.02
44144;BME280;43510;51.920;4.492;2023-01-08T13:27:47;67252.88;;;12.58;87.38
44144;BME280;43510;51.920;4.492;2023-01-08T13:32:54;67244.84;;;12.55;88.39
44144;BME280;43510;51.920;4.492;2023-01-08T13:35:29;67241.88;;;12.50;87.77
44144;BME280;43510;51.920;4.492;2023-01-08T13:38:11;67237.41;;;12.46;87.50
44144;BME280;43510;51.920;4.492;2023-01-08T13:43:20;67230.88;;;12.43;87.81
44144;BME280;43510;51.920;4.492;2023-01-08T13:48:24;67213.38;;;12.24;87.57
44144;BME280;43510;51.920;4.492;2023-01-08T13:50:50;67215.06;;;12.26;87.68
44144;BME280;43510;51.920;4.492;2023-01-08T13:53:16;67226.63;;;12.34;87.87
44144;BME280;43510;51.920;4.492;2023-01-08T13:55:42;67241.31;;;12.50;87.58
44144;BME280;43510;51.920;4.492;2023-01-08T13:58:14;67242.44;;;12.51;86.49
44144;BME280;43510;51.920;4.492;2023-01-08T14:03:19;67251.22;;;12.56;86.46
44144;BME280;43510;51.920;4.492;2023-01-08T14:05:45;67225.09;;;12.35;86.97
44144;BME280;43510;51.920;4.492;2023-01-08T14:08:20;67225.09;;;12.35;86.53
44144;BME280;43510;51.920;4.492;2023-01-08T14:10:51;67214.88;;;12.23;86.89
44144;BME280;43510;51.920;4.492;2023-01-08T14:13:25;67214.72;;;12.21;87.31
44144;BME280;43510;51.920;4.492;2023-01-08T14:15:51;67198.28;;;12.11;87.59
44144;BME280;43510;51.920;4.492;2023-01-08T14:18:21;67194.94;;;12.08;88.07
44144;BME280;43510;51.920;4.492;2023-01-08T14:20:47;67192.56;;;12.03;88.23
44144;BME280;43510;51.920;4.492;2023-01-08T14:23:34;67187.13;;;12.01;88.36
44144;BME280;43510;51.920;4.492;2023-01-08T14:26:05;67190.88;;;12.02;88.51
44144;BME280;43510;51.920;4.492;2023-01-08T14:28:32;67194.94;;;12.08;88.85
44144;BME280;43510;51.920;4.492;2023-01-08T14:30:58;67202.22;;;12.14;88.34